Latest Coastal Weather Observations for Dennes Point

IDT60701

Issued at 3:32 pm EDT Sunday 29 March 2015 (issued every 10 minutes, with the page automatically refreshed every 10 minutes)

About coastal observations | Map of coastal stations | Coastal observations for TAS | Marine services | Other Formats
Station Details ID: 094255 Name: DENNES POINT Lat: -43.06 Lon: 147.36 Height: 5.67 m
Data from the previous 72 hours. | See also: Recent months at Dennes Point
Date/Time
EDT
Temp

°C
Wind Pressure Rain
since 9am
mm
Weather Cloud Vis
km
Sea
Height
m
Swell
Dir
 
Speed
knots
Gust
knots
hPa Trend Height
m
Period
s
Dir
29/03:30pm 13.1 SSE 4 6 1015.5 - 1.4 - - - - - - -
29/03:00pm 13.4 SSE 4 6 1015.4 - 1.4 Recent precip. - - - - - -
29/02:30pm 12.7 SSE 3 5 1015.4 - 1.4 - - - - - - -
29/02:00pm 12.8 SSW 5 8 1015.4 - 1.2 - - - - - - -
29/01:30pm 12.6 S 5 8 1015.1 - 0.6 - - - - - - -
29/01:00pm 14.0 SSE 6 10 1014.9 - 0.0 - - - - - - -
29/12:30pm 16.5 W 6 9 1014.2 - 0.0 - - - - - - -
29/12:00pm 16.2 NNW 7 12 1013.9 - 0.0 - - - - - - -
29/11:30am 15.8 N 12 16 1013.9 - 0.0 - - - - - - -
29/11:00am 15.6 N 12 16 1014.0 - 0.0 - - - - - - -
29/10:30am 15.4 N 10 14 1014.0 - 0.0 - - - - - - -
29/10:00am 15.0 NNW 8 10 1014.0 - 0.0 - - - - - - -
29/09:30am 14.9 NNW 11 14 1013.9 - 0.0 - - - - - - -
29/09:00am 14.8 NNW 14 18 1013.8 - 0.0 - - - - - - -
29/08:30am 14.6 NNW 14 19 1013.6 - 0.0 - - - - - - -
29/08:00am 14.7 NW 13 18 1013.3 - 0.0 - - - - - - -
29/07:30am 14.2 NW 11 15 1013.5 - 0.0 - - - - - - -
29/07:00am 14.5 WNW 15 23 1013.3 - 0.0 - - - - - - -
29/06:30am 14.2 WNW 13 20 1013.0 - 0.0 - - - - - - -
29/06:00am 13.3 NW 10 14 1013.1 - 0.0 - - - - - - -
29/05:30am 12.6 NNW 9 13 1013.4 - 0.0 - - - - - - -
29/05:00am 13.0 NNW 11 15 1013.3 - 0.0 - - - - - - -
29/04:30am 12.6 N 8 11 1013.5 - 0.0 - - - - - - -
29/04:00am 12.8 NNW 4 6 1014.4 - 0.0 - - - - - - -
29/03:30am 12.6 NNW 9 12 1014.3 - 0.0 - - - - - - -
29/03:00am 12.4 NW 10 14 1014.4 - 0.0 - - - - - - -
29/02:30am 10.2 SSW 3 5 1014.9 - 0.0 - - - - - - -
29/02:00am 9.9 SSW 4 6 1015.5 - 0.0 - - - - - - -
29/01:30am 9.8 SSW 5 6 1015.5 - 0.0 - - - - - - -
29/01:00am 10.2 SSW 5 7 1015.7 - 0.0 - - - - - - -
29/12:30am 10.1 SSW 5 5 1016.0 - 0.0 - - - - - - -
29/12:00am 10.3 SSW 5 7 1016.4 - 0.0 - - - - - - -
 
Date/Time
EDT
Temp

°C
Wind Pressure Rain
since 9am
mm
Weather Cloud Vis
km
Sea
Height
m
Swell
Dir
 
Speed
knots
Gust
knots
hPa Trend Height
m
Period
s
Dir
28/11:30pm 10.8 SSW 5 6 1016.7 - 0.0 - - - - - - -
28/11:00pm 10.6 SSW 5 7 1017.2 - 0.0 - - - - - - -
28/10:30pm 11.0 SSW 6 7 1017.6 - 0.0 - - - - - - -
28/10:00pm 11.7 SSW 4 6 1018.0 - 0.0 - - - - - - -
28/09:30pm 12.1 S 3 4 1018.0 - 0.0 - - - - - - -
28/09:00pm 13.6 NE 4 5 1018.1 - 0.0 - - - - - - -
28/08:30pm 13.4 SE 3 5 1018.1 - 0.0 - - - - - - -
28/08:00pm 12.9 ESE 3 4 1018.1 - 0.0 - - - - - - -
28/07:30pm 13.5 SE 5 6 1018.0 - 0.0 - - - - - - -
28/07:00pm 13.7 ESE 5 7 1017.9 - 0.0 - - - - - - -
28/06:30pm 14.7 SE 5 6 1018.0 - 0.0 - - - - - - -
28/06:00pm 14.8 ESE 7 9 1017.9 - 0.0 - - - - - - -
28/05:30pm 15.3 ESE 8 12 1017.9 - 0.0 - - - - - - -
28/05:00pm 15.7 ESE 9 11 1017.9 - 0.0 - - - - - - -
28/04:30pm 16.5 ESE 8 10 1018.0 - 0.0 - - - - - - -
28/04:00pm 16.8 ESE 6 7 1018.1 - 0.0 - - - - - - -
28/03:30pm 16.8 E 4 5 1018.3 - 0.0 - - - - - - -
28/03:00pm 16.5 ENE 4 5 1018.6 - 0.0 - - - - - - -
28/02:30pm 17.1 NNE 4 5 1018.8 - 0.0 - - - - - - -
28/02:00pm 16.4 NNE 5 7 1019.2 - 0.0 - - - - - - -
28/01:30pm 16.2 NNE 4 6 1019.5 - 0.0 - - - - - - -
28/01:00pm 16.0 NE 3 4 1019.9 - 0.0 - - - - - - -
28/12:30pm 14.9 NE 4 6 1020.3 - 0.0 - - - - - - -
28/12:00pm 14.8 N 4 7 1020.6 - 0.0 - - - - - - -
28/11:30am 15.2 WSW 5 9 1020.8 - 0.0 - - - - - - -
28/11:00am 14.7 W 4 5 1021.0 - 0.0 - - - - - - -
28/10:30am 14.0 N 3 5 1021.2 - 0.0 - - - - - - -
28/10:00am 13.5 NW 5 7 1021.3 - 0.0 - - - - - - -
28/09:30am 13.5 NW 5 7 1021.0 - 0.0 - - - - - - -
28/09:00am 13.2 W 5 7 1021.0 - 7.2 - - - - - - -
28/08:30am 12.8 WNW 6 9 1020.9 - 7.2 - - - - - - -
28/08:00am 11.3 SW 4 6 1020.8 - 7.2 - - - - - - -
28/07:30am 10.3 WSW 3 5 1020.7 - 7.2 - - - - - - -
28/07:00am 10.9 W 5 7 1020.6 - 7.2 - - - - - - -
28/06:30am 11.4 WSW 10 12 1020.4 - 7.2 - - - - - - -
28/06:00am 11.5 WSW 8 12 1020.4 - 7.2 - - - - - - -
28/05:30am 12.1 WSW 10 13 1020.1 - 7.2 - - - - - - -
28/05:00am 12.3 WSW 10 13 1019.9 - 7.2 - - - - - - -
28/04:30am 12.4 W 10 13 1020.0 - 7.2 - - - - - - -
28/04:00am 12.4 WSW 11 13 1020.0 - 7.2 - - - - - - -
28/03:30am 12.6 WSW 9 12 1020.1 - 7.2 - - - - - - -
28/03:00am 12.5 WSW 7 10 1020.3 - 7.2 - - - - - - -
28/02:30am 12.4 W 9 11 1020.3 - 7.2 - - - - - - -
28/02:00am 12.2 SW 4 9 1020.5 - 7.2 - - - - - - -
28/01:30am 12.2 SW 5 8 1020.3 - 7.2 - - - - - - -
28/01:00am 12.2 SW 5 8 1020.3 - 7.2 - - - - - - -
28/12:30am 11.8 SSW 4 6 1020.2 - 7.2 - - - - - - -
28/12:00am 12.2 SSW 5 7 1020.2 - 7.2 - - - - - - -
 
Date/Time
EDT
Temp

°C
Wind Pressure Rain
since 9am
mm
Weather Cloud Vis
km
Sea
Height
m
Swell
Dir
 
Speed
knots
Gust
knots
hPa Trend Height
m
Period
s
Dir
27/11:30pm 12.1 SSW 7 10 1020.2 - 7.2 - - - - - - -
27/11:00pm 12.1 SSW 7 10 1020.3 - 7.2 - - - - - - -
27/10:30pm 12.1 SSW 7 11 1020.1 - 7.2 - - - - - - -
27/10:00pm 12.3 SSW 7 13 1020.0 - 6.6 - - - - - - -
27/09:30pm 12.8 SSW 6 9 1019.8 - 6.2 - - - - - - -
27/09:00pm 13.1 SW 7 9 1019.5 - 6.0 - - - - - - -
27/08:30pm 13.0 SSW 6 9 1019.2 - 6.0 - - - - - - -
27/08:00pm 13.0 SSW 7 11 1018.8 - 6.0 - - - - - - -
27/07:30pm 12.6 SSW 8 11 1018.4 - 6.0 - - - - - - -
27/07:00pm 13.1 SSW 7 10 1017.9 - 5.8 - - - - - - -
27/06:30pm 13.0 SSW 9 13 1017.4 - 5.8 - - - - - - -
27/06:00pm 12.7 SSW 11 20 1017.1 - 5.8 Recent precip. - - - - - -
27/05:30pm 12.3 SSW 10 16 1016.9 - 5.8 - - - - - - -
27/05:00pm 12.2 SSW 12 19 1016.5 - 5.6 - - - - - - -
27/04:30pm 12.4 SSW 12 17 1016.3 - 5.4 - - - - - - -
27/04:00pm 12.5 SSW 10 18 1016.0 - 3.2 - - - - - - -
27/03:30pm 13.6 SSW 12 18 1015.6 - 1.2 - - - - - - -
27/03:00pm 14.3 SSW 10 18 1015.2 - 1.2 - - - - - - -
27/02:30pm 13.9 SW 14 20 1014.9 - 1.2 - - - - - - -
27/02:00pm 15.7 SSW 15 22 1014.5 - 1.2 - - - - - - -
27/01:30pm 15.2 SSW 12 19 1014.5 - 1.2 - - - - - - -
27/01:00pm 14.1 SW 12 19 1014.3 - 1.2 - - - - - - -
27/12:30pm 14.0 SW 14 23 1014.0 - 1.2 - - - - - - -
27/12:00pm 13.9 SW 11 16 1013.6 - 1.2 - - - - - - -
27/11:30am 13.2 SW 11 16 1013.1 - 1.2 - - - - - - -
27/11:00am 12.0 SW 11 16 1012.9 - 1.2 - - - - - - -
27/10:30am 12.2 SW 9 15 1012.5 - 1.0 - - - - - - -
27/10:00am 11.7 WSW 9 12 1012.0 - 1.0 - - - - - - -
27/09:30am 10.7 WSW 9 11 1011.5 - 0.8 - - - - - - -
27/09:00am 10.4 WSW 7 10 1011.0 - 12.8 Rain - - - - - -
27/08:30am 10.1 SW 7 10 1010.8 - 12.0 - - - - - - -
27/08:00am 10.6 WSW 11 13 1010.4 - 10.8 - - - - - - -
27/07:30am 10.3 WSW 11 14 1009.9 - 10.0 - - - - - - -
27/07:00am 10.0 W 9 11 1009.9 - 9.6 - - - - - - -
27/06:30am 9.9 WSW 9 14 1009.7 - 8.4 - - - - - - -
27/06:00am 10.1 WSW 8 11 1009.5 - 7.4 Rain - - - - - -
27/05:30am 10.4 WSW 7 10 1009.4 - 6.4 - - - - - - -
27/05:00am 10.2 W 9 11 1009.6 - 6.2 - - - - - - -
27/04:30am 10.1 WNW 8 9 1009.7 - 6.2 - - - - - - -
27/04:00am 10.7 W 9 10 1009.9 - 4.8 - - - - - - -
27/03:30am 10.9 WSW 7 10 1010.0 - 4.4 - - - - - - -
27/03:00am 10.8 W 7 9 1010.3 - 4.4 - - - - - - -
27/02:30am 10.8 W 8 10 1010.4 - 4.4 - - - - - - -
27/02:00am 11.1 W 8 10 1010.6 - 4.4 - - - - - - -
27/01:30am 10.7 SW 4 7 1010.8 - 4.4 - - - - - - -
27/01:00am 10.4 SW 3 5 1010.8 - 4.4 - - - - - - -
27/12:30am 10.4 SW 6 9 1010.8 - 4.4 - - - - - - -
27/12:00am 10.3 SSW 5 6 1011.0 - 4.4 - - - - - - -
 
Date/Time
EDT
Temp

°C
Wind Pressure Rain
since 9am
mm
Weather Cloud Vis
km
Sea
Height
m
Swell
Dir
 
Speed
knots
Gust
knots
hPa Trend Height
m
Period
s
Dir
26/11:30pm 10.3 SSW 3 5 1011.3 - 4.4 - - - - - - -
26/11:00pm 10.4 SSW 5 6 1011.1 - 4.4 - - - - - - -
26/10:30pm 11.2 WSW 6 7 1010.9 - 4.4 - - - - - - -
26/10:00pm 11.7 W 5 7 1011.0 - 4.4 - - - - - - -
26/09:30pm 11.8 SSE 3 4 1011.3 - 4.4 - - - - - - -
26/09:00pm 11.9 SSE 4 5 1011.3 - 4.4 Recent precip. - - - - - -
26/08:30pm 11.9 S 3 5 1011.1 - 4.4 - - - - - - -
26/08:00pm 12.4 WSW 2 3 1011.0 - 4.2 - - - - - - -
26/07:30pm 12.5 W 6 9 1010.4 - 4.2 - - - - - - -
26/07:00pm 12.4 WNW 7 11 1010.3 - 4.2 - - - - - - -
26/06:30pm 13.9 SE 6 8 1009.7 - 4.0 - - - - - - -
26/06:00pm 14.3 SE 5 8 1009.5 - 4.0 - - - - - - -
26/05:30pm 15.7 ESE 5 7 1009.4 - 4.0 - - - - - - -
26/05:00pm 15.7 CALM 0 0 1009.3 - 4.0 - - - - - - -
26/04:30pm 15.5 WNW 1 1 1009.4 - 4.0 - - - - - - -
26/04:00pm 15.7 NNW 2 3 1009.5 - 4.0 - - - - - - -

Other Formats:

Comma delimited format used in spreadsheet applications
http://www.bom.gov.au/fwo/IDT60701/IDT60701.94988.axf

JavaScript Object Notation format (JSON) in row-major order
http://www.bom.gov.au/fwo/IDT60701/IDT60701.94988.json